Time;durP1;ratioP1;P1;durP2;ratioP2;P2;SDS_P1;SDS_P2;PMS_P1;PMS_P2;Temp;Humidity;BMP_temperature;BMP_pressure;BME280_temperature;BME280_humidity;BME280_pressure;Samples;Min_cycle;Max_cycle;Signal;HPM_P1;HPM_P2
2023/09/07 00:01:55;;;;;;;8.73;7.10;;;20.90;99.90;;;;;;5014093;28;20444;-64
2023/09/07 00:04:22;;;;;;;7.70;7.13;;;20.80;99.90;;;;;;5015323;28;20183;-64
2023/09/07 00:06:49;;;;;;;7.77;7.13;;;20.80;99.90;;;;;;5014073;28;20203;-63
2023/09/07 00:09:18;;;;;;;8.00;7.20;;;20.80;99.90;;;;;;4994778;28;20431;-64
2023/09/07 00:11:45;;;;;;;7.80;7.13;;;20.80;99.90;;;;;;5012410;28;20426;-63
2023/09/07 00:14:11;;;;;;;9.63;6.97;;;20.70;99.90;;;;;;5014103;28;20424;-64
2023/09/07 00:16:38;;;;;;;7.87;7.17;;;20.70;99.90;;;;;;5014600;28;20855;-64
2023/09/07 00:19:04;;;;;;;7.80;6.87;;;20.60;99.90;;;;;;5015272;28;20421;-64
2023/09/07 00:21:30;;;;;;;6.93;6.33;;;20.60;99.90;;;;;;5014278;28;20433;-64
2023/09/07 00:23:56;;;;;;;7.20;6.60;;;20.50;99.90;;;;;;5012277;28;20429;-64
2023/09/07 00:26:22;;;;;;;7.00;6.50;;;20.50;99.90;;;;;;5014311;28;20793;-64
2023/09/07 00:28:48;;;;;;;7.00;6.50;;;20.50;99.90;;;;;;5014931;28;20182;-63
2023/09/07 00:31:14;;;;;;;7.60;7.00;;;20.50;99.90;;;;;;5015393;28;20554;-63
2023/09/07 00:33:39;;;;;;;7.70;6.60;;;20.50;99.90;;;;;;5014345;28;20635;-64
2023/09/07 00:36:05;;;;;;;7.53;6.80;;;20.50;99.90;;;;;;5015292;28;20210;-64
2023/09/07 00:38:31;;;;;;;7.80;6.67;;;20.50;99.90;;;;;;5014557;28;20701;-64
2023/09/07 00:40:57;;;;;;;8.00;7.17;;;20.40;99.90;;;;;;5006360;28;20191;-64
2023/09/07 00:43:22;;;;;;;8.47;7.70;;;20.40;99.90;;;;;;5014319;28;20217;-63
2023/09/07 00:45:49;;;;;;;8.17;7.57;;;20.40;99.90;;;;;;5014877;28;20640;-64
2023/09/07 00:48:18;;;;;;;8.03;7.37;;;20.40;99.90;;;;;;5015392;28;20173;-64
2023/09/07 00:50:45;;;;;;;7.70;7.17;;;20.30;99.90;;;;;;5014687;28;20422;-63
2023/09/07 00:53:11;;;;;;;8.43;7.83;;;20.30;99.90;;;;;;5012454;28;20422;-64
2023/09/07 00:55:37;;;;;;;10.30;7.80;;;20.30;99.90;;;;;;5012962;28;20460;-63
2023/09/07 00:58:04;;;;;;;8.03;7.43;;;20.20;99.90;;;;;;5015007;28;20465;-64
2023/09/07 01:00:31;;;;;;;8.33;7.53;;;20.20;99.90;;;;;;5010043;28;20784;-64
2023/09/07 01:02:57;;;;;;;8.60;8.00;;;20.20;99.90;;;;;;5012868;28;20913;-64
2023/09/07 01:05:32;;;;;;;7.93;7.30;;;20.10;99.90;;;;;;5014494;28;20411;-63
2023/09/07 01:08:07;;;;;;;7.83;7.23;;;20.10;99.90;;;;;;5013070;28;20179;-64
2023/09/07 01:10:33;;;;;;;8.67;8.07;;;20.10;99.90;;;;;;5012136;28;20417;-63
2023/09/07 01:12:58;;;;;;;8.50;8.00;;;20.10;99.90;;;;;;5014581;28;20417;-64
2023/09/07 01:15:24;;;;;;;8.60;7.90;;;20.00;99.90;;;;;;5013835;28;20203;-62
2023/09/07 01:17:51;;;;;;;9.50;8.80;;;20.00;99.90;;;;;;5013748;28;20242;-63
2023/09/07 01:20:18;;;;;;;9.90;9.00;;;20.00;99.90;;;;;;5014361;28;20659;-64
2023/09/07 01:22:44;;;;;;;9.40;8.60;;;20.00;99.90;;;;;;5012578;28;20430;-64
2023/09/07 01:25:10;;;;;;;8.37;7.77;;;19.90;99.90;;;;;;5012889;28;20437;-63
2023/09/07 01:27:36;;;;;;;8.90;8.10;;;19.90;99.90;;;;;;5013735;28;20421;-64
2023/09/07 01:30:03;;;;;;;9.60;8.87;;;19.90;99.90;;;;;;5014220;28;20493;-64
2023/09/07 01:32:28;;;;;;;8.77;8.07;;;19.90;99.90;;;;;;5013819;28;20436;-64
2023/09/07 01:34:58;;;;;;;9.83;8.30;;;19.80;99.90;;;;;;5014169;28;20414;-64
2023/09/07 01:37:23;;;;;;;8.20;7.50;;;19.80;99.90;;;;;;5013250;28;20227;-63
2023/09/07 01:39:50;;;;;;;8.70;8.00;;;19.80;99.90;;;;;;5014062;28;20941;-64
2023/09/07 01:42:15;;;;;;;7.60;7.00;;;19.80;99.90;;;;;;5014392;28;20196;-63
2023/09/07 01:44:43;;;;;;;9.10;8.23;;;19.80;99.90;;;;;;5013393;28;20975;-64
2023/09/07 01:47:09;;;;;;;8.50;7.60;;;19.80;99.90;;;;;;5013861;28;20186;-64
2023/09/07 01:49:34;;;;;;;8.73;7.93;;;19.80;99.90;;;;;;5012873;28;20414;-63
2023/09/07 01:52:00;;;;;;;9.07;8.27;;;19.80;99.90;;;;;;5013247;28;20190;-63
2023/09/07 01:54:26;;;;;;;10.00;9.10;;;19.80;99.90;;;;;;5012796;28;20501;-63
2023/09/07 01:56:51;;;;;;;9.30;8.57;;;19.80;99.90;;;;;;5013256;28;20199;-63
2023/09/07 01:59:17;;;;;;;9.40;8.57;;;19.80;99.90;;;;;;5012671;28;20214;-64
2023/09/07 02:01:43;;;;;;;9.07;8.37;;;19.70;99.90;;;;;;5012506;28;20567;-64
2023/09/07 02:04:09;;;;;;;10.17;9.13;;;19.70;99.90;;;;;;5012291;28;20639;-64
2023/09/07 02:06:34;;;;;;;10.30;9.30;;;19.70;99.90;;;;;;5012957;28;20175;-63
2023/09/07 02:09:04;;;;;;;10.00;9.10;;;19.60;99.90;;;;;;5012289;28;20186;-64
2023/09/07 02:11:29;;;;;;;11.07;9.97;;;19.60;99.90;;;;;;5012624;28;20550;-63
2023/09/07 02:13:55;;;;;;;10.03;9.13;;;19.60;99.90;;;;;;5013840;28;20405;-64
2023/09/07 02:16:21;;;;;;;9.67;8.87;;;19.60;99.90;;;;;;5012839;28;20740;-64
2023/09/07 02:18:50;;;;;;;10.17;9.37;;;19.60;99.90;;;;;;5012848;28;20212;-63
2023/09/07 02:21:16;;;;;;;9.70;8.73;;;19.60;99.90;;;;;;5012482;28;20524;-64
2023/09/07 02:23:42;;;;;;;9.33;8.60;;;19.60;99.90;;;;;;5010925;28;20550;-64
2023/09/07 02:26:08;;;;;;;9.60;8.67;;;19.50;99.90;;;;;;5012846;28;20263;-63
2023/09/07 02:28:33;;;;;;;9.17;8.50;;;19.50;99.90;;;;;;5012589;28;20182;-63
2023/09/07 02:31:03;;;;;;;9.53;8.80;;;19.50;99.90;;;;;;5012964;28;20205;-64
2023/09/07 02:33:29;;;;;;;9.40;8.60;;;19.40;99.90;;;;;;5011940;28;20179;-63
2023/09/07 02:35:55;;;;;;;10.13;9.23;;;19.40;99.90;;;;;;5013082;28;20928;-64
2023/09/07 02:38:21;;;;;;;9.50;8.60;;;19.40;99.90;;;;;;5012982;28;20561;-64
2023/09/07 02:40:47;;;;;;;9.50;8.70;;;19.40;99.90;;;;;;5011939;28;20426;-65
2023/09/07 02:43:13;;;;;;;9.50;8.60;;;19.40;99.90;;;;;;5013236;28;20248;-64
2023/09/07 02:45:39;;;;;;;10.90;9.80;;;19.40;99.90;;;;;;5012642;28;20485;-64
2023/09/07 02:48:06;;;;;;;10.20;9.30;;;19.40;99.90;;;;;;5012932;28;20190;-64
2023/09/07 02:50:33;;;;;;;10.40;9.40;;;19.40;99.90;;;;;;5010954;28;20531;-64
2023/09/07 02:53:00;;;;;;;9.63;8.90;;;19.40;99.90;;;;;;5011434;28;20890;-61
2023/09/07 02:55:26;;;;;;;10.30;9.50;;;19.50;99.90;;;;;;5012875;28;20429;-64
2023/09/07 02:57:53;;;;;;;9.60;8.80;;;19.50;99.90;;;;;;5012806;28;20537;-63
2023/09/07 03:00:19;;;;;;;11.13;10.00;;;19.50;99.90;;;;;;5012670;28;20430;-64
2023/09/07 03:02:45;;;;;;;10.57;9.67;;;19.40;99.90;;;;;;5011705;28;20425;-64
2023/09/07 03:05:10;;;;;;;10.13;9.23;;;19.40;99.90;;;;;;5012718;28;20406;-64
2023/09/07 03:07:36;;;;;;;9.53;8.73;;;19.40;99.90;;;;;;5012343;28;20210;-64
2023/09/07 03:10:02;;;;;;;9.20;8.40;;;19.30;99.90;;;;;;5012708;28;20427;-64
2023/09/07 03:12:28;;;;;;;9.63;8.93;;;19.30;99.90;;;;;;5012353;28;20544;-60
2023/09/07 03:14:54;;;;;;;9.67;8.93;;;19.30;99.90;;;;;;5012532;28;20233;-64
2023/09/07 03:17:20;;;;;;;10.83;8.93;;;19.30;99.90;;;;;;5012258;28;20221;-64
2023/09/07 03:19:49;;;;;;;10.10;9.20;;;19.30;99.90;;;;;;5010410;28;20183;-64
2023/09/07 03:22:15;;;;;;;9.57;8.70;;;19.20;99.90;;;;;;5009768;28;20481;-64
2023/09/07 03:24:41;;;;;;;10.90;9.80;;;19.30;99.90;;;;;;5011577;28;20949;-63
2023/09/07 03:27:07;;;;;;;12.67;9.50;;;19.20;99.90;;;;;;5011783;28;20449;-64
2023/09/07 03:29:35;;;;;;;11.10;10.10;;;19.20;99.90;;;;;;5011729;28;20222;-63
2023/09/07 03:32:01;;;;;;;10.60;9.70;;;19.30;99.90;;;;;;5012506;28;20529;-64
2023/09/07 03:34:27;;;;;;;9.80;8.90;;;19.20;99.90;;;;;;5012534;28;20430;-64
2023/09/07 03:36:53;;;;;;;9.97;9.10;;;19.20;99.90;;;;;;5011585;28;20457;-63
2023/09/07 03:39:22;;;;;;;10.00;9.10;;;19.20;99.90;;;;;;5012352;28;20261;-63
2023/09/07 03:41:48;;;;;;;9.57;8.73;;;19.20;99.90;;;;;;5011687;28;20497;-64
2023/09/07 03:44:14;;;;;;;9.40;8.50;;;19.20;99.90;;;;;;5012350;28;20659;-63
2023/09/07 03:46:40;;;;;;;9.40;8.03;;;19.20;99.90;;;;;;5012061;28;20631;-63
2023/09/07 03:49:05;;;;;;;9.37;8.30;;;19.20;99.90;;;;;;5011962;28;20225;-64
2023/09/07 03:51:32;;;;;;;9.40;8.17;;;19.20;99.90;;;;;;5009495;28;20427;-63
2023/09/07 03:53:57;;;;;;;9.20;8.43;;;19.20;99.90;;;;;;5012660;28;20178;-64
2023/09/07 03:56:23;;;;;;;10.07;9.10;;;19.10;99.90;;;;;;5010704;28;20441;-63
2023/09/07 03:58:49;;;;;;;10.30;8.73;;;19.10;99.90;;;;;;5011515;28;20225;-64
2023/09/07 04:01:15;;;;;;;10.07;9.03;;;19.10;99.90;;;;;;5012079;28;20631;-64
2023/09/07 04:03:41;;;;;;;10.90;9.97;;;19.10;99.90;;;;;;5010429;28;20688;-63
2023/09/07 04:06:07;;;;;;;10.40;9.40;;;19.10;99.90;;;;;;5012130;28;20296;-64
2023/09/07 04:08:33;;;;;;;10.57;9.60;;;19.10;99.90;;;;;;5011600;28;20599;-63
2023/09/07 04:11:04;;;;;;;9.43;8.73;;;19.10;99.90;;;;;;5011880;28;20451;-64
2023/09/07 04:13:30;;;;;;;9.20;8.30;;;19.10;99.90;;;;;;5012091;28;20522;-63
2023/09/07 04:15:55;;;;;;;9.00;8.30;;;19.10;99.90;;;;;;5010679;28;21000;-63
2023/09/07 04:18:21;;;;;;;9.17;7.47;;;19.10;99.90;;;;;;5011980;28;20179;-64
2023/09/07 04:20:47;;;;;;;8.73;8.00;;;19.10;99.90;;;;;;5012684;28;20217;-64
2023/09/07 04:23:13;;;;;;;8.53;7.93;;;19.10;99.90;;;;;;5014123;28;20179;-64
2023/09/07 04:25:39;;;;;;;7.70;7.10;;;19.10;99.90;;;;;;5014958;28;20190;-64
2023/09/07 04:28:07;;;;;;;8.70;7.90;;;19.10;99.90;;;;;;5015048;28;20171;-64
2023/09/07 04:30:41;;;;;;;10.17;9.37;;;19.10;99.90;;;;;;5013426;28;20436;-63
2023/09/07 04:33:07;;;;;;;9.40;8.50;;;19.10;99.90;;;;;;5016023;28;20489;-64
2023/09/07 04:35:33;;;;;;;10.60;8.40;;;19.00;99.90;;;;;;5014833;28;20513;-60
2023/09/07 04:37:59;;;;;;;9.13;8.20;;;19.00;99.90;;;;;;5015143;28;20222;-64
2023/09/07 04:40:25;;;;;;;8.60;7.90;;;19.00;99.90;;;;;;5015324;28;20988;-65
2023/09/07 04:42:51;;;;;;;8.40;7.77;;;19.00;99.90;;;;;;5014401;28;20441;-64
2023/09/07 04:45:17;;;;;;;9.43;7.70;;;19.00;99.90;;;;;;5015260;28;20431;-64
2023/09/07 04:47:43;;;;;;;8.70;7.90;;;18.90;99.90;;;;;;5014429;28;20988;-64
2023/09/07 04:50:10;;;;;;;8.43;7.73;;;18.90;99.90;;;;;;5014777;28;20167;-64
2023/09/07 04:52:36;;;;;;;9.70;8.67;;;18.90;99.90;;;;;;5002389;28;20918;-64
2023/09/07 04:55:02;;;;;;;7.70;7.10;;;18.90;99.90;;;;;;5009588;28;20475;-64
2023/09/07 04:57:30;;;;;;;8.40;7.67;;;18.90;99.90;;;;;;5014597;28;20442;-64
2023/09/07 04:59:55;;;;;;;10.30;7.70;;;18.90;99.90;;;;;;5014365;28;20430;-62
2023/09/07 05:02:21;;;;;;;8.73;7.53;;;18.80;99.90;;;;;;5014168;28;20479;-64
2023/09/07 05:04:47;;;;;;;8.07;7.47;;;18.80;99.90;;;;;;5013770;28;20171;-65
2023/09/07 05:07:12;;;;;;;8.83;8.00;;;18.80;99.90;;;;;;5014855;28;20778;-65
2023/09/07 05:09:38;;;;;;;8.53;7.73;;;18.80;99.90;;;;;;5013870;28;20171;-64
2023/09/07 05:12:04;;;;;;;8.93;7.90;;;18.80;99.90;;;;;;5013368;28;20198;-65
2023/09/07 05:14:30;;;;;;;8.87;8.07;;;18.80;99.90;;;;;;5012924;28;20175;-64
2023/09/07 05:16:56;;;;;;;7.97;7.23;;;18.80;99.90;;;;;;5013928;28;20460;-64
2023/09/07 05:19:22;;;;;;;13.67;7.90;;;18.70;99.90;;;;;;5014074;28;20187;-65
2023/09/07 05:21:48;;;;;;;9.80;8.90;;;18.70;99.90;;;;;;5004701;28;20457;-65
2023/09/07 05:24:15;;;;;;;10.20;9.10;;;18.70;99.90;;;;;;5013885;28;20426;-65
2023/09/07 05:26:42;;;;;;;8.97;8.20;;;18.70;99.90;;;;;;5014024;28;20549;-65
2023/09/07 05:29:08;;;;;;;10.17;9.00;;;18.70;99.90;;;;;;5013989;28;20782;-65
2023/09/07 05:31:33;;;;;;;9.57;8.67;;;18.70;99.90;;;;;;5013165;28;20464;-65
2023/09/07 05:34:00;;;;;;;9.40;8.43;;;18.70;99.90;;;;;;5013265;28;20236;-65
2023/09/07 05:36:27;;;;;;;8.97;8.07;;;18.70;99.90;;;;;;5013635;28;20245;-64
2023/09/07 05:38:53;;;;;;;10.07;9.17;;;18.70;99.90;;;;;;5013614;28;20500;-65
2023/09/07 05:41:19;;;;;;;9.77;8.87;;;18.80;99.90;;;;;;5014045;28;20426;-65
2023/09/07 05:43:45;;;;;;;10.37;9.17;;;18.80;99.90;;;;;;5013195;28;20426;-65
2023/09/07 05:46:10;;;;;;;10.37;9.40;;;18.80;99.90;;;;;;5013271;28;20506;-65
2023/09/07 05:48:36;;;;;;;10.40;9.30;;;18.80;99.90;;;;;;5010673;28;20175;-65
2023/09/07 05:51:03;;;;;;;11.63;10.17;;;18.80;99.90;;;;;;5012359;28;20186;-64
2023/09/07 05:53:29;;;;;;;10.63;9.57;;;18.80;99.90;;;;;;5009585;28;20458;-65
2023/09/07 05:55:54;;;;;;;11.37;9.20;;;18.90;99.90;;;;;;5013139;28;20452;-65
2023/09/07 05:58:21;;;;;;;11.30;10.00;;;18.90;99.90;;;;;;5013145;28;20207;-65
2023/09/07 06:00:47;;;;;;;11.50;10.50;;;18.90;99.90;;;;;;4998266;28;20186;-65
2023/09/07 06:03:13;;;;;;;11.83;10.63;;;18.90;99.90;;;;;;5003611;28;20414;-65
2023/09/07 06:05:39;;;;;;;15.43;11.80;;;19.00;99.90;;;;;;5013110;28;20198;-62
2023/09/07 06:08:08;;;;;;;11.83;10.70;;;18.90;99.90;;;;;;5012394;28;20444;-65
2023/09/07 06:10:34;;;;;;;11.53;10.13;;;18.90;99.90;;;;;;4996060;28;20423;-65
2023/09/07 06:13:00;;;;;;;10.50;9.50;;;18.90;99.90;;;;;;4993697;28;20422;-65
2023/09/07 06:15:27;;;;;;;10.97;9.97;;;18.90;99.90;;;;;;4994127;28;20180;-67
2023/09/07 06:17:54;;;;;;;11.43;10.33;;;19.20;99.90;;;;;;5006036;28;20438;-67
2023/09/07 06:20:19;;;;;;;11.43;10.33;;;19.40;99.90;;;;;;5012719;28;20422;-67
2023/09/07 06:22:45;;;;;;;11.23;10.10;;;19.60;99.90;;;;;;5011385;28;20508;-70
2023/09/07 06:25:11;;;;;;;10.57;9.60;;;19.60;99.90;;;;;;5013407;28;20218;-69
2023/09/07 06:27:38;;;;;;;11.60;10.50;;;19.70;99.90;;;;;;5012857;28;20670;-68
2023/09/07 06:30:05;;;;;;;11.73;10.27;;;19.70;99.90;;;;;;5012174;28;20504;-67
2023/09/07 06:32:32;;;;;;;12.00;9.90;;;19.80;99.90;;;;;;5012861;28;20422;-66
2023/09/07 06:34:58;;;;;;;11.70;9.17;;;19.70;99.90;;;;;;5012263;28;20426;-65
2023/09/07 06:37:24;;;;;;;11.97;10.77;;;19.70;99.90;;;;;;5012270;28;20476;-66
2023/09/07 06:39:50;;;;;;;10.90;9.90;;;19.70;99.90;;;;;;5012015;28;20948;-74
2023/09/07 06:42:16;;;;;;;12.37;11.13;;;19.70;99.90;;;;;;4994208;28;20489;-75
2023/09/07 06:44:42;;;;;;;10.60;9.60;;;19.70;99.90;;;;;;4997414;28;20426;-74
2023/09/07 06:47:08;;;;;;;10.93;9.93;;;19.70;99.90;;;;;;5009198;28;20434;-73
2023/09/07 06:49:34;;;;;;;10.70;9.60;;;19.70;99.90;;;;;;4994643;28;20434;-73
2023/09/07 06:52:00;;;;;;;12.43;9.83;;;19.70;99.90;;;;;;5008058;28;20178;-75
2023/09/07 06:54:28;;;;;;;11.00;9.90;;;19.70;99.90;;;;;;4993627;28;20526;-75
2023/09/07 06:56:54;;;;;;;14.03;10.10;;;19.70;99.90;;;;;;5000458;28;20207;-75
2023/09/07 06:59:20;;;;;;;11.10;10.00;;;19.70;99.90;;;;;;5012457;28;20452;-75
2023/09/07 07:01:45;;;;;;;11.20;10.20;;;19.80;99.90;;;;;;5011258;28;20183;-75
2023/09/07 07:04:11;;;;;;;10.27;9.37;;;19.80;99.90;;;;;;5012683;28;20167;-73
2023/09/07 07:06:37;;;;;;;10.47;9.47;;;19.80;99.90;;;;;;4997740;28;20636;-73
2023/09/07 07:09:05;;;;;;;10.77;9.67;;;19.90;99.90;;;;;;4996247;28;20167;-73
2023/09/07 07:11:30;;;;;;;10.00;8.97;;;19.90;99.90;;;;;;5001251;28;20841;-73
2023/09/07 07:13:56;;;;;;;15.73;14.27;;;20.00;99.90;;;;;;5012279;28;20410;-73
2023/09/07 07:16:22;;;;;;;12.80;11.20;;;20.00;99.90;;;;;;5012569;28;20663;-73
2023/09/07 07:18:47;;;;;;;11.77;10.63;;;20.10;99.90;;;;;;5011923;28;20233;-74
2023/09/07 07:21:13;;;;;;;9.73;8.93;;;20.20;99.90;;;;;;5012442;28;20175;-70
2023/09/07 07:23:39;;;;;;;12.00;10.80;;;20.20;99.90;;;;;;5012540;28;20688;-68
2023/09/07 07:26:04;;;;;;;11.70;10.70;;;20.20;99.90;;;;;;5011929;28;20213;-72
2023/09/07 07:28:30;;;;;;;11.00;10.10;;;20.30;99.90;;;;;;5010744;28;20624;-71
2023/09/07 07:30:56;;;;;;;9.57;8.57;;;20.30;99.90;;;;;;5005985;28;20172;-71
2023/09/07 07:33:22;;;;;;;9.80;8.90;;;20.40;99.90;;;;;;4993428;28;20659;-72
2023/09/07 07:35:48;;;;;;;9.90;9.00;;;20.40;99.90;;;;;;5004607;28;20198;-70
2023/09/07 07:38:14;;;;;;;9.73;8.80;;;20.50;99.90;;;;;;5012552;28;20477;-68
2023/09/07 07:40:42;;;;;;;9.77;8.97;;;20.50;99.90;;;;;;5012440;28;20232;-70
2023/09/07 07:43:10;;;;;;;10.37;9.43;;;20.60;99.90;;;;;;5006619;28;20482;-72
2023/09/07 07:45:38;;;;;;;10.10;9.20;;;20.60;99.90;;;;;;5011017;28;20438;-71
2023/09/07 07:48:07;;;;;;;9.63;8.83;;;20.70;99.90;;;;;;5011116;28;21055;-72
2023/09/07 07:50:39;;;;;;;9.97;9.07;;;20.80;99.90;;;;;;5012398;28;20418;-72
2023/09/07 07:53:06;;;;;;;10.50;8.60;;;20.90;99.90;;;;;;5004728;28;20422;-71
2023/09/07 07:55:38;;;;;;;9.90;9.10;;;20.90;99.90;;;;;;5007368;28;20507;-69
2023/09/07 07:58:08;;;;;;;8.83;8.13;;;21.00;99.90;;;;;;5011983;28;20465;-70
2023/09/07 08:00:38;;;;;;;10.30;8.77;;;21.10;99.90;;;;;;5016212;28;20440;-72
2023/09/07 08:03:07;;;;;;;16.93;12.63;;;21.10;99.90;;;;;;5015514;28;20422;-72
2023/09/07 08:05:34;;;;;;;12.13;9.97;;;21.20;99.90;;;;;;5008026;28;20434;-73
2023/09/07 08:08:00;;;;;;;117.10;104.43;;;21.40;99.90;;;;;;5007405;28;20430;-73
2023/09/07 08:10:26;;;;;;;14.07;12.70;;;21.50;99.90;;;;;;5015573;28;20440;-73
2023/09/07 08:12:54;;;;;;;935.97;713.13;;;21.60;99.90;;;;;;5011201;28;20438;-73
2023/09/07 08:15:22;;;;;;;65.70;50.43;;;21.70;99.90;;;;;;5009718;28;20460;-73
2023/09/07 08:17:48;;;;;;;11.27;9.80;;;21.80;99.90;;;;;;5014829;28;20454;-74
2023/09/07 08:20:15;;;;;;;10.50;9.47;;;22.00;99.90;;;;;;5014347;28;20426;-73
2023/09/07 08:22:42;;;;;;;9.03;8.27;;;22.00;99.90;;;;;;5014005;28;20447;-74
2023/09/07 08:25:14;;;;;;;13.53;11.10;;;22.10;99.90;;;;;;5015329;28;20410;-73
2023/09/07 08:27:45;;;;;;;15.33;10.60;;;22.20;99.90;;;;;;5015399;28;20418;-73
2023/09/07 08:30:16;;;;;;;10.27;9.17;;;22.30;99.90;;;;;;5007933;28;20820;-74
2023/09/07 08:32:42;;;;;;;18.30;11.80;;;22.40;99.90;;;;;;5015280;28;20414;-74
2023/09/07 08:35:12;;;;;;;17.30;11.50;;;22.50;99.90;;;;;;5013958;28;20421;-74
2023/09/07 08:37:39;;;;;;;28.87;15.00;;;22.50;99.90;;;;;;5014311;28;20465;-74
2023/09/07 08:40:07;;;;;;;13.50;9.90;;;22.60;99.90;;;;;;5013001;28;20445;-73
2023/09/07 08:42:36;;;;;;;10.10;9.10;;;22.70;99.90;;;;;;5013476;28;20929;-73
2023/09/07 08:45:06;;;;;;;13.00;10.30;;;22.80;99.90;;;;;;5000637;28;20422;-72
2023/09/07 08:47:37;;;;;;;10.10;9.20;;;23.00;99.90;;;;;;5015219;28;20772;-73
2023/09/07 08:50:06;;;;;;;9.07;8.37;;;23.10;99.90;;;;;;5014419;28;20414;-73
2023/09/07 08:52:32;;;;;;;8.60;8.00;;;23.20;99.90;;;;;;5014140;28;20430;-72
2023/09/07 08:55:00;;;;;;;8.97;8.17;;;23.30;99.90;;;;;;5013610;28;20430;-73
2023/09/07 08:57:28;;;;;;;8.90;8.20;;;23.40;99.90;;;;;;5013984;28;20644;-73
2023/09/07 08:59:54;;;;;;;9.20;8.50;;;23.50;99.90;;;;;;5013423;28;20429;-72
2023/09/07 09:02:20;;;;;;;9.00;8.30;;;23.60;99.90;;;;;;5014259;28;20430;-73
2023/09/07 09:04:46;;;;;;;12.10;10.80;;;23.60;99.90;;;;;;5014172;28;20203;-68
2023/09/07 09:07:11;;;;;;;10.33;9.33;;;23.80;99.90;;;;;;5012820;28;20746;-72
2023/09/07 09:09:38;;;;;;;225.27;179.90;;;23.90;99.90;;;;;;5013679;28;20650;-72
2023/09/07 09:12:10;;;;;;;44.67;40.23;;;24.00;99.90;;;;;;5013686;28;20175;-72
2023/09/07 09:14:36;;;;;;;8.43;7.90;;;24.20;99.90;;;;;;5011495;28;20422;-72
2023/09/07 09:17:02;;;;;;;8.80;8.20;;;24.30;99.90;;;;;;5012438;28;20822;-71
2023/09/07 09:19:32;;;;;;;7.83;7.37;;;24.40;99.80;;;;;;5014167;28;20183;-73
2023/09/07 09:21:58;;;;;;;8.07;7.57;;;24.50;99.90;;;;;;5013865;28;20484;-72
2023/09/07 09:24:24;;;;;;;9.13;8.57;;;24.70;99.40;;;;;;5014123;28;20914;-72
2023/09/07 09:26:50;;;;;;;7.37;6.93;;;24.90;97.70;;;;;;5014345;28;20504;-68
2023/09/07 09:29:16;;;;;;;8.00;7.50;;;25.10;97.50;;;;;;5014543;28;20699;-72
2023/09/07 09:31:42;;;;;;;9.13;8.63;;;25.40;99.00;;;;;;5014611;28;20418;-67
2023/09/07 09:34:08;;;;;;;8.63;8.10;;;25.60;97.70;;;;;;5014019;28;20171;-66
2023/09/07 09:36:36;;;;;;;9.80;9.20;;;25.90;95.90;;;;;;5014347;28;20532;-66
2023/09/07 09:39:03;;;;;;;8.93;8.33;;;26.10;98.10;;;;;;5013921;28;20462;-66
2023/09/07 09:41:31;;;;;;;12.13;7.97;;;26.40;94.70;;;;;;5014506;28;20449;-66
2023/09/07 09:43:59;;;;;;;9.03;8.33;;;26.60;96.00;;;;;;5005758;28;20442;-66
2023/09/07 09:46:26;;;;;;;9.30;8.70;;;26.90;93.50;;;;;;4994772;28;20403;-66
2023/09/07 09:48:52;;;;;;;10.00;9.40;;;27.00;93.80;;;;;;4994250;28;20471;-62
2023/09/07 09:51:18;;;;;;;8.53;8.03;;;27.30;92.70;;;;;;5004459;28;20445;-66
2023/09/07 09:53:45;;;;;;;10.33;8.80;;;27.40;91.00;;;;;;5014527;28;20403;-66
2023/09/07 09:56:11;;;;;;;9.70;9.10;;;27.60;91.10;;;;;;5013556;28;20414;-66
2023/09/07 09:58:37;;;;;;;8.70;8.03;;;27.60;90.70;;;;;;5014137;28;20493;-66
2023/09/07 10:01:05;;;;;;;9.13;8.63;;;28.00;93.50;;;;;;5013558;28;20614;-67
2023/09/07 10:03:50;;;;;;;7.97;7.40;;;28.30;89.90;;;;;;5014151;28;20410;-66
2023/09/07 10:06:22;;;;;;;8.27;7.57;;;28.40;91.00;;;;;;5013458;28;20448;-66
2023/09/07 10:09:10;;;;;;;8.60;8.00;;;28.60;89.70;;;;;;5013897;28;20442;-66
2023/09/07 10:11:38;;;;;;;8.80;8.20;;;28.70;86.40;;;;;;5014053;28;20405;-66
2023/09/07 10:14:05;;;;;;;9.00;8.50;;;28.80;88.90;;;;;;5013229;28;20402;-66
2023/09/07 10:16:46;;;;;;;9.00;8.53;;;29.00;88.60;;;;;;5013680;28;20450;-66
2023/09/07 10:19:20;;;;;;;9.40;8.70;;;29.20;87.30;;;;;;5012715;28;20394;-66
2023/09/07 10:21:47;;;;;;;8.60;8.10;;;29.40;87.40;;;;;;5012218;28;20929;-67
2023/09/07 10:24:33;;;;;;;13.57;12.57;;;29.70;86.20;;;;;;5013084;28;20402;-66
2023/09/07 10:27:00;;;;;;;8.87;8.37;;;30.00;89.00;;;;;;5013129;28;20406;-66
2023/09/07 10:29:27;;;;;;;9.03;8.40;;;30.20;81.80;;;;;;5011722;28;20450;-66
2023/09/07 10:31:53;;;;;;;8.40;7.90;;;30.30;84.90;;;;;;5013306;28;20410;-66
2023/09/07 10:34:20;;;;;;;8.37;7.90;;;30.50;82.00;;;;;;5013477;28;20457;-66
2023/09/07 10:36:47;;;;;;;9.67;9.07;;;30.60;80.30;;;;;;5013122;28;20493;-66
2023/09/07 10:39:13;;;;;;;9.83;9.23;;;30.70;81.30;;;;;;5013084;28;20513;-66
2023/09/07 10:41:43;;;;;;;9.90;9.40;;;31.00;78.20;;;;;;5013392;28;20510;-66
2023/09/07 10:44:13;;;;;;;8.17;7.63;;;31.10;79.30;;;;;;5012779;28;20182;-66
2023/09/07 10:46:39;;;;;;;9.20;8.60;;;31.20;79.80;;;;;;5013055;28;20387;-67
2023/09/07 10:49:11;;;;;;;9.10;8.50;;;31.30;75.60;;;;;;5012273;28;20413;-66
2023/09/07 10:51:43;;;;;;;8.50;8.00;;;31.30;74.50;;;;;;5011938;28;20455;-66
2023/09/07 10:54:22;;;;;;;9.80;9.20;;;31.30;77.20;;;;;;5012616;28;20406;-67
2023/09/07 10:56:49;;;;;;;10.10;9.43;;;31.30;74.30;;;;;;5013117;28;20584;-65
2023/09/07 10:59:16;;;;;;;9.13;8.57;;;31.30;74.30;;;;;;5010236;28;20423;-63
2023/09/07 11:01:45;;;;;;;8.70;8.20;;;31.40;76.20;;;;;;4994544;28;20441;-65
2023/09/07 11:04:11;;;;;;;8.77;8.27;;;31.50;73.60;;;;;;4991652;28;20403;-65
2023/09/07 11:06:39;;;;;;;11.37;10.67;;;31.40;72.20;;;;;;4993403;28;20417;-65
2023/09/07 11:09:08;;;;;;;9.93;9.43;;;31.30;72.80;;;;;;4992511;28;20178;-65
2023/09/07 11:11:35;;;;;;;12.40;11.70;;;31.50;77.90;;;;;;4993440;28;20407;-64
2023/09/07 11:14:03;;;;;;;10.77;9.80;;;31.60;75.00;;;;;;4993091;28;20418;-65
2023/09/07 11:16:29;;;;;;;10.43;9.90;;;31.70;74.20;;;;;;4993226;28;20883;-65
2023/09/07 11:18:54;;;;;;;12.53;11.73;;;31.80;75.60;;;;;;4993538;28;20415;-67
2023/09/07 11:21:21;;;;;;;10.53;9.67;;;31.90;74.20;;;;;;4992984;28;20180;-66
2023/09/07 11:23:46;;;;;;;11.90;11.00;;;32.00;74.10;;;;;;4993354;28;20264;-66
2023/09/07 11:26:13;;;;;;;10.13;9.53;;;32.00;74.60;;;;;;4992520;28;20962;-66
2023/09/07 11:28:39;;;;;;;9.83;9.27;;;32.00;75.60;;;;;;4995570;28;20195;-66
2023/09/07 11:31:05;;;;;;;17.53;16.07;;;32.10;75.00;;;;;;5014176;28;20886;-66
2023/09/07 11:33:33;;;;;;;15.03;13.93;;;32.10;76.60;;;;;;5016927;28;20410;-66
2023/09/07 11:35:58;;;;;;;11.60;10.83;;;32.10;77.30;;;;;;5013813;28;20425;-65
2023/09/07 11:38:29;;;;;;;10.07;9.37;;;32.10;78.20;;;;;;5029656;28;20867;-66
2023/09/07 11:40:56;;;;;;;13.80;12.77;;;32.20;76.20;;;;;;5016495;28;20266;-66
2023/09/07 11:43:22;;;;;;;9.93;9.20;;;32.20;75.40;;;;;;5013485;28;21084;-65
2023/09/07 11:45:50;;;;;;;8.67;8.07;;;32.20;73.70;;;;;;5013286;28;20897;-66
2023/09/07 11:48:15;;;;;;;10.67;10.07;;;32.20;77.00;;;;;;5012800;28;20421;-66
2023/09/07 11:50:41;;;;;;;12.50;11.47;;;32.30;77.20;;;;;;5014415;28;20824;-66
2023/09/07 11:53:08;;;;;;;12.90;11.60;;;32.30;77.10;;;;;;5013140;28;20198;-66
2023/09/07 11:55:34;;;;;;;10.03;9.33;;;32.40;77.00;;;;;;5014655;28;20185;-66
2023/09/07 11:58:06;;;;;;;10.30;9.60;;;32.30;76.40;;;;;;5015418;28;20450;-65
2023/09/07 12:00:32;;;;;;;9.60;9.00;;;32.30;76.60;;;;;;5016010;28;20421;-66
2023/09/07 12:02:59;;;;;;;9.97;9.33;;;32.20;76.10;;;;;;5014788;28;20444;-66
2023/09/07 12:05:25;;;;;;;10.20;9.60;;;32.20;73.70;;;;;;5015910;28;20187;-65
2023/09/07 12:07:50;;;;;;;9.20;8.60;;;32.10;75.80;;;;;;5014642;28;20429;-64
2023/09/07 12:10:16;;;;;;;10.93;10.10;;;32.10;75.70;;;;;;5014073;28;20565;-63
2023/09/07 12:12:43;;;;;;;9.50;8.80;;;32.10;76.00;;;;;;5015576;28;20183;-64
2023/09/07 12:15:13;;;;;;;9.20;8.60;;;32.10;74.10;;;;;;5015171;28;20217;-64
2023/09/07 12:17:39;;;;;;;12.43;11.60;;;32.20;75.60;;;;;;5012980;28;20458;-66
2023/09/07 12:20:09;;;;;;;9.47;8.97;;;32.10;76.80;;;;;;5015023;28;20417;-66
2023/09/07 12:22:38;;;;;;;11.90;11.00;;;32.10;75.60;;;;;;5015671;28;20500;-66
2023/09/07 12:25:08;;;;;;;10.90;10.20;;;32.20;76.20;;;;;;5014700;28;20409;-67
2023/09/07 12:27:34;;;;;;;11.00;10.30;;;32.20;75.40;;;;;;5013280;28;20402;-68
2023/09/07 12:30:02;;;;;;;10.20;8.90;;;32.10;76.40;;;;;;5014310;28;20422;-67
2023/09/07 12:32:28;;;;;;;11.70;10.90;;;32.10;77.10;;;;;;5015007;28;20186;-66
2023/09/07 12:34:53;;;;;;;11.77;10.80;;;31.90;74.90;;;;;;5015829;28;20410;-68
2023/09/07 12:37:23;;;;;;;11.90;10.90;;;31.80;75.10;;;;;;5014414;28;20219;-66
2023/09/07 12:39:49;;;;;;;9.43;8.83;;;31.70;76.00;;;;;;5016031;28;20171;-67